Time;durP1;ratioP1;P1;durP2;ratioP2;P2;SDS_P1;SDS_P2;PMS_P1;PMS_P2;Temp;Humidity;BMP_temperature;BMP_pressure;BME280_temperature;BME280_humidity;BME280_pressure;Samples;Min_cycle;Max_cycle;Signal;HPM_P1;HPM_P2
2022/11/25 00:00:35;;;;;;;19.33;7.03;;;;;;;;;;5113716;28;20198;-68
2022/11/25 00:03:02;;;;;;;12.68;6.05;;;;;;;;;;5113537;28;20199;-67
2022/11/25 00:05:30;;;;;;;16.70;7.15;;;;;;;;;;5113572;28;20294;-67
2022/11/25 00:07:58;;;;;;;14.35;5.75;;;;;;;;;;5113448;28;20223;-67
2022/11/25 00:10:25;;;;;;;21.42;6.25;;;;;;;;;;5113482;28;20287;-67
2022/11/25 00:12:52;;;;;;;19.08;6.95;;;;;;;;;;5113658;28;20196;-67
2022/11/25 00:15:19;;;;;;;15.85;7.13;;;;;;;;;;5113217;28;20205;-67
2022/11/25 00:17:46;;;;;;;14.43;6.50;;;;;;;;;;5113425;28;20589;-66
2022/11/25 00:20:14;;;;;;;16.80;7.32;;;;;;;;;;5113518;28;20215;-67
2022/11/25 00:22:42;;;;;;;11.43;5.80;;;;;;;;;;5113446;28;20196;-67
2022/11/25 00:25:09;;;;;;;16.98;6.55;;;;;;;;;;5113161;28;20203;-67
2022/11/25 00:27:37;;;;;;;13.65;5.78;;;;;;;;;;5113459;28;20550;-67
2022/11/25 00:30:04;;;;;;;12.98;6.20;;;;;;;;;;5113391;28;20223;-67
2022/11/25 00:32:31;;;;;;;15.98;6.80;;;;;;;;;;5112969;28;20189;-68
2022/11/25 00:34:59;;;;;;;16.40;5.60;;;;;;;;;;5113053;28;20212;-67
2022/11/25 00:37:26;;;;;;;10.73;6.03;;;;;;;;;;5113288;28;20653;-67
2022/11/25 00:39:54;;;;;;;16.95;5.70;;;;;;;;;;5113025;28;20193;-67
2022/11/25 00:45:07;;;;;;;13.00;6.25;;;;;;;;;;5116893;28;20233;-68
2022/11/25 00:47:34;;;;;;;9.82;4.95;;;;;;;;;;5116764;28;20196;-67
2022/11/25 00:50:01;;;;;;;13.38;6.22;;;;;;;;;;5116785;28;20226;-67
2022/11/25 00:52:29;;;;;;;14.52;4.90;;;;;;;;;;5116958;28;20198;-67
2022/11/25 00:54:57;;;;;;;11.82;5.38;;;;;;;;;;5116929;28;20192;-68
2022/11/25 00:57:25;;;;;;;10.75;5.07;;;;;;;;;;5116582;28;20582;-67
2022/11/25 00:59:52;;;;;;;16.73;5.18;;;;;;;;;;5116630;28;20665;-67
2022/11/25 01:02:19;;;;;;;11.30;4.28;;;;;;;;;;5116524;28;20200;-67
2022/11/25 01:04:46;;;;;;;15.05;4.40;;;;;;;;;;5116566;28;20615;-67
2022/11/25 01:07:14;;;;;;;12.57;3.90;;;;;;;;;;5116497;28;20196;-67
2022/11/25 01:09:41;;;;;;;20.20;4.85;;;;;;;;;;5116324;28;20223;-68
2022/11/25 01:12:10;;;;;;;9.43;4.47;;;;;;;;;;5117205;28;20219;-68
2022/11/25 01:14:37;;;;;;;11.07;5.10;;;;;;;;;;5116049;28;20196;-67
2022/11/25 01:17:04;;;;;;;15.02;6.35;;;;;;;;;;5116559;28;20628;-67
2022/11/25 01:19:31;;;;;;;14.23;5.07;;;;;;;;;;5116293;28;20290;-67
2022/11/25 01:21:59;;;;;;;13.20;5.10;;;;;;;;;;5116395;28;20211;-68
2022/11/25 01:24:26;;;;;;;17.40;5.25;;;;;;;;;;5115837;28;20282;-67
2022/11/25 01:26:54;;;;;;;14.10;4.50;;;;;;;;;;5115769;28;20200;-67
2022/11/25 01:29:23;;;;;;;11.45;4.68;;;;;;;;;;5115971;28;20219;-67
2022/11/25 01:31:50;;;;;;;13.05;4.35;;;;;;;;;;5116072;28;20192;-67
2022/11/25 01:34:18;;;;;;;9.13;4.22;;;;;;;;;;5115606;28;20227;-67
2022/11/25 01:36:46;;;;;;;9.90;4.47;;;;;;;;;;5116016;28;20685;-67
2022/11/25 01:39:17;;;;;;;13.38;4.70;;;;;;;;;;5115870;28;20568;-67
2022/11/25 01:41:44;;;;;;;10.02;3.97;;;;;;;;;;5115718;28;20204;-67
2022/11/25 01:44:13;;;;;;;23.70;4.60;;;;;;;;;;5116028;28;20188;-67
2022/11/25 01:46:56;;;;;;;11.50;4.55;;;;;;;;;;5115775;28;20561;-67
2022/11/25 01:49:26;;;;;;;18.15;3.92;;;;;;;;;;5115849;28;20209;-67
2022/11/25 01:51:57;;;;;;;11.38;4.07;;;;;;;;;;5116302;28;20191;-67
2022/11/25 01:54:26;;;;;;;11.13;4.03;;;;;;;;;;5114559;28;20188;-68
2022/11/25 01:56:55;;;;;;;21.55;5.07;;;;;;;;;;5115228;28;20201;-67
2022/11/25 01:59:23;;;;;;;12.88;3.90;;;;;;;;;;5115681;28;20200;-67
2022/11/25 02:01:50;;;;;;;13.27;4.07;;;;;;;;;;5115103;28;20671;-67
2022/11/25 02:04:19;;;;;;;13.60;5.57;;;;;;;;;;5115001;28;20657;-67
2022/11/25 02:06:50;;;;;;;14.35;3.55;;;;;;;;;;5115376;28;20257;-68
2022/11/25 02:09:19;;;;;;;20.35;5.20;;;;;;;;;;5115163;28;20207;-67
2022/11/25 02:11:46;;;;;;;10.95;4.00;;;;;;;;;;5116041;28;20199;-68
2022/11/25 02:14:15;;;;;;;9.77;3.70;;;;;;;;;;5115109;28;20204;-68
2022/11/25 02:16:42;;;;;;;13.98;4.30;;;;;;;;;;5115164;28;20195;-67
2022/11/25 02:19:12;;;;;;;6.15;3.80;;;;;;;;;;5115379;28;20193;-68
2022/11/25 02:21:42;;;;;;;15.95;3.65;;;;;;;;;;5115270;28;20188;-67
2022/11/25 02:24:12;;;;;;;13.88;4.40;;;;;;;;;;5114937;28;20664;-67
2022/11/25 02:26:41;;;;;;;16.15;6.25;;;;;;;;;;5114911;28;20683;-67
2022/11/25 02:29:08;;;;;;;14.50;6.28;;;;;;;;;;5114709;28;20220;-67
2022/11/25 02:31:35;;;;;;;13.15;3.63;;;;;;;;;;5114587;28;20192;-68
2022/11/25 02:34:02;;;;;;;13.95;4.20;;;;;;;;;;5114807;28;20201;-67
2022/11/25 02:36:30;;;;;;;12.98;4.25;;;;;;;;;;5115301;28;20189;-65
2022/11/25 02:38:59;;;;;;;9.85;4.10;;;;;;;;;;5114275;28;20208;-67
2022/11/25 02:41:28;;;;;;;10.15;4.22;;;;;;;;;;5114822;28;20195;-67
2022/11/25 02:43:56;;;;;;;8.43;3.60;;;;;;;;;;5114542;28;20283;-67
2022/11/25 02:46:24;;;;;;;8.63;4.32;;;;;;;;;;5114300;28;20277;-67
2022/11/25 02:48:52;;;;;;;12.27;6.00;;;;;;;;;;5114389;28;20223;-68
2022/11/25 02:51:20;;;;;;;11.60;4.10;;;;;;;;;;5114500;28;20199;-67
2022/11/25 02:53:47;;;;;;;14.60;4.00;;;;;;;;;;5114467;28;20192;-67
2022/11/25 02:56:16;;;;;;;6.50;3.00;;;;;;;;;;5114388;28;20192;-67
2022/11/25 02:58:43;;;;;;;15.45;4.30;;;;;;;;;;5114445;28;20295;-67
2022/11/25 03:01:11;;;;;;;14.65;3.88;;;;;;;;;;5114261;28;20196;-67
2022/11/25 03:03:39;;;;;;;11.73;4.07;;;;;;;;;;5114320;28;20624;-67
2022/11/25 03:06:06;;;;;;;13.18;4.35;;;;;;;;;;5113981;28;20192;-68
2022/11/25 03:08:33;;;;;;;12.13;3.90;;;;;;;;;;5114586;28;20552;-67
2022/11/25 03:11:00;;;;;;;8.13;4.05;;;;;;;;;;5114320;28;20192;-67
2022/11/25 03:13:28;;;;;;;10.20;3.70;;;;;;;;;;5114596;28;20193;-68
2022/11/25 03:15:55;;;;;;;8.45;3.83;;;;;;;;;;5114110;28;20248;-68
2022/11/25 03:18:23;;;;;;;15.45;3.33;;;;;;;;;;5114236;28;20315;-68
2022/11/25 03:20:52;;;;;;;10.15;3.88;;;;;;;;;;5114043;28;20561;-68
2022/11/25 03:23:19;;;;;;;10.90;4.20;;;;;;;;;;5113789;28;20666;-67
2022/11/25 03:25:47;;;;;;;8.88;3.58;;;;;;;;;;5114022;28;20206;-67
2022/11/25 03:28:14;;;;;;;8.68;4.03;;;;;;;;;;5113690;28;20199;-67
2022/11/25 03:30:41;;;;;;;14.98;5.80;;;;;;;;;;5113883;28;20227;-69
2022/11/25 03:33:08;;;;;;;9.98;4.50;;;;;;;;;;5113953;28;20198;-67
2022/11/25 03:35:37;;;;;;;7.28;4.07;;;;;;;;;;5113702;28;20192;-67
2022/11/25 03:38:04;;;;;;;7.65;3.50;;;;;;;;;;5113807;28;20192;-68
2022/11/25 03:40:31;;;;;;;8.75;3.35;;;;;;;;;;5113706;28;20535;-68
2022/11/25 03:42:58;;;;;;;12.45;3.35;;;;;;;;;;5114030;28;20589;-67
2022/11/25 03:45:25;;;;;;;7.47;3.50;;;;;;;;;;5113976;28;20545;-68
2022/11/25 03:47:53;;;;;;;20.73;4.40;;;;;;;;;;5113841;28;20198;-68
2022/11/25 03:50:20;;;;;;;11.40;3.88;;;;;;;;;;5113608;28;20227;-67
2022/11/25 03:52:48;;;;;;;14.65;3.85;;;;;;;;;;5113785;28;20203;-68
2022/11/25 03:55:15;;;;;;;10.10;3.65;;;;;;;;;;5113650;28;20559;-68
2022/11/25 03:57:43;;;;;;;11.55;5.00;;;;;;;;;;5113404;28;20197;-67
2022/11/25 04:00:10;;;;;;;7.65;4.10;;;;;;;;;;5113598;28;20203;-68
2022/11/25 04:02:38;;;;;;;8.73;3.35;;;;;;;;;;5113346;28;20202;-67
2022/11/25 04:05:05;;;;;;;7.22;3.85;;;;;;;;;;5113688;28;20484;-67
2022/11/25 04:07:32;;;;;;;17.10;6.10;;;;;;;;;;5113741;28;20590;-68
2022/11/25 04:10:01;;;;;;;14.82;5.13;;;;;;;;;;5113474;28;20213;-68
2022/11/25 04:12:46;;;;;;;6.35;3.33;;;;;;;;;;5113152;28;20193;-68
2022/11/25 04:15:13;;;;;;;14.60;4.22;;;;;;;;;;5113464;28;20203;-68
2022/11/25 04:17:41;;;;;;;8.07;4.40;;;;;;;;;;5116390;28;20197;-68
2022/11/25 04:20:09;;;;;;;10.38;3.50;;;;;;;;;;5117366;28;20287;-68
2022/11/25 04:22:36;;;;;;;11.75;4.07;;;;;;;;;;5117431;28;20196;-68
2022/11/25 04:25:05;;;;;;;13.07;3.95;;;;;;;;;;5116952;28;20621;-67
2022/11/25 04:27:32;;;;;;;20.92;5.07;;;;;;;;;;5117309;28;20277;-68
2022/11/25 04:29:59;;;;;;;16.05;4.13;;;;;;;;;;5116899;28;20213;-68
2022/11/25 04:32:27;;;;;;;11.35;4.00;;;;;;;;;;5116807;28;20676;-67
2022/11/25 04:34:54;;;;;;;13.25;4.50;;;;;;;;;;5116853;28;20197;-67
2022/11/25 04:37:21;;;;;;;14.68;5.40;;;;;;;;;;5117074;28;20203;-67
2022/11/25 04:39:48;;;;;;;7.93;4.10;;;;;;;;;;5116992;28;20196;-67
2022/11/25 04:42:33;;;;;;;9.32;4.20;;;;;;;;;;5117014;28;20225;-68
2022/11/25 04:45:00;;;;;;;10.15;4.95;;;;;;;;;;5117084;28;20357;-68
2022/11/25 04:47:28;;;;;;;13.82;4.70;;;;;;;;;;5116526;28;20193;-67
2022/11/25 04:49:55;;;;;;;14.05;5.78;;;;;;;;;;5117037;28;20225;-67
2022/11/25 04:52:22;;;;;;;12.52;3.90;;;;;;;;;;5116901;28;20287;-67
2022/11/25 04:54:49;;;;;;;8.43;3.85;;;;;;;;;;5116459;28;20195;-67
2022/11/25 04:57:18;;;;;;;15.95;5.00;;;;;;;;;;5116835;28;20626;-67
2022/11/25 04:59:44;;;;;;;17.95;4.70;;;;;;;;;;5116903;28;20199;-67
2022/11/25 05:02:13;;;;;;;12.18;4.18;;;;;;;;;;5114573;28;20193;-66
2022/11/25 05:04:41;;;;;;;12.27;4.30;;;;;;;;;;5115751;28;20203;-66
2022/11/25 05:07:08;;;;;;;13.05;4.78;;;;;;;;;;5115588;28;20265;-66
2022/11/25 05:09:36;;;;;;;11.13;4.90;;;;;;;;;;5115343;28;20219;-67
2022/11/25 05:12:03;;;;;;;16.95;6.30;;;;;;;;;;5115096;28;20193;-67
2022/11/25 05:14:31;;;;;;;10.87;4.77;;;;;;;;;;5116346;28;20215;-66
2022/11/25 05:16:59;;;;;;;6.82;4.22;;;;;;;;;;5115192;28;20434;-66
2022/11/25 05:19:26;;;;;;;17.38;5.68;;;;;;;;;;5116167;28;20288;-66
2022/11/25 05:21:53;;;;;;;16.73;5.53;;;;;;;;;;5115691;28;20203;-67
2022/11/25 05:24:20;;;;;;;8.02;3.50;;;;;;;;;;5115368;28;20438;-66
2022/11/25 05:26:47;;;;;;;15.07;5.45;;;;;;;;;;5115920;28;20192;-66
2022/11/25 05:29:14;;;;;;;12.85;5.10;;;;;;;;;;5116280;28;20192;-66
2022/11/25 05:31:43;;;;;;;11.68;4.18;;;;;;;;;;5115362;28;20197;-66
2022/11/25 05:34:10;;;;;;;15.13;4.80;;;;;;;;;;5115969;28;20199;-66
2022/11/25 05:36:37;;;;;;;17.00;4.65;;;;;;;;;;5115281;28;20200;-66
2022/11/25 05:39:05;;;;;;;15.93;4.38;;;;;;;;;;5115483;28;20664;-66
2022/11/25 05:41:32;;;;;;;15.80;6.15;;;;;;;;;;5115220;28;20634;-66
2022/11/25 05:43:59;;;;;;;17.90;4.90;;;;;;;;;;5115896;28;20268;-66
2022/11/25 05:46:26;;;;;;;19.67;6.32;;;;;;;;;;5115524;28;20441;-66
2022/11/25 05:48:55;;;;;;;18.83;4.53;;;;;;;;;;5115377;27;20201;-66
2022/11/25 05:51:23;;;;;;;14.05;4.80;;;;;;;;;;5115253;28;20220;-66
2022/11/25 05:53:50;;;;;;;20.90;5.63;;;;;;;;;;5115737;28;20283;-66
2022/11/25 05:56:18;;;;;;;14.30;4.93;;;;;;;;;;5115113;28;20199;-66
2022/11/25 05:58:45;;;;;;;9.27;4.55;;;;;;;;;;5115050;28;20236;-66
2022/11/25 06:01:13;;;;;;;23.73;6.00;;;;;;;;;;5115002;28;20207;-66
2022/11/25 06:03:40;;;;;;;15.63;5.88;;;;;;;;;;5115628;28;20199;-66
2022/11/25 06:06:09;;;;;;;17.33;5.28;;;;;;;;;;5115069;28;20623;-66
2022/11/25 06:08:37;;;;;;;32.90;6.28;;;;;;;;;;5115250;27;20196;-68
2022/11/25 06:11:05;;;;;;;14.68;5.40;;;;;;;;;;5115288;28;20224;-69
2022/11/25 06:13:32;;;;;;;17.15;5.90;;;;;;;;;;5115295;28;20200;-69
2022/11/25 06:16:00;;;;;;;15.55;5.00;;;;;;;;;;5115191;28;20554;-69
2022/11/25 06:18:27;;;;;;;22.45;5.75;;;;;;;;;;5114984;28;20200;-69
2022/11/25 06:20:58;;;;;;;26.55;5.30;;;;;;;;;;5114910;28;20193;-69
2022/11/25 06:23:30;;;;;;;15.27;5.30;;;;;;;;;;5115118;28;20299;-68
2022/11/25 06:26:04;;;;;;;18.05;5.25;;;;;;;;;;5115125;28;20684;-69
2022/11/25 06:28:31;;;;;;;15.65;5.35;;;;;;;;;;5114980;28;20198;-70
2022/11/25 06:31:04;;;;;;;24.00;10.07;;;;;;;;;;5114526;28;20704;-69
2022/11/25 06:33:31;;;;;;;18.42;6.25;;;;;;;;;;5115023;28;20191;-69
2022/11/25 06:35:58;;;;;;;11.73;5.50;;;;;;;;;;5114826;28;20199;-70
2022/11/25 06:38:25;;;;;;;13.07;4.80;;;;;;;;;;5114661;28;20197;-69
2022/11/25 06:40:53;;;;;;;12.90;6.13;;;;;;;;;;5114057;28;20196;-69
2022/11/25 06:43:21;;;;;;;15.35;4.68;;;;;;;;;;5114328;28;20817;-70
2022/11/25 06:45:48;;;;;;;10.05;4.55;;;;;;;;;;5114334;28;20318;-69
2022/11/25 06:48:16;;;;;;;13.35;5.18;;;;;;;;;;5114211;28;20668;-69
2022/11/25 06:50:43;;;;;;;13.63;5.28;;;;;;;;;;5114518;28;20217;-69
2022/11/25 06:53:10;;;;;;;12.57;3.65;;;;;;;;;;5114366;28;20189;-69
2022/11/25 06:55:37;;;;;;;18.80;5.50;;;;;;;;;;5114458;28;20197;-68
2022/11/25 06:58:04;;;;;;;21.67;6.05;;;;;;;;;;5114554;28;20223;-68
2022/11/25 07:00:33;;;;;;;10.45;4.50;;;;;;;;;;5114620;28;20206;-68
2022/11/25 07:03:00;;;;;;;11.57;4.13;;;;;;;;;;5113945;28;20283;-68
2022/11/25 07:05:27;;;;;;;20.05;5.70;;;;;;;;;;5113977;28;20197;-68
2022/11/25 07:07:54;;;;;;;11.68;4.82;;;;;;;;;;5114197;28;20196;-68
2022/11/25 07:10:22;;;;;;;12.13;4.15;;;;;;;;;;5113809;28;20216;-68
2022/11/25 07:12:49;;;;;;;16.73;4.85;;;;;;;;;;5114689;28;20567;-68
2022/11/25 07:15:16;;;;;;;10.80;4.55;;;;;;;;;;5114616;28;20189;-68
2022/11/25 07:17:45;;;;;;;15.10;4.40;;;;;;;;;;5113735;28;20279;-68
2022/11/25 07:20:12;;;;;;;17.05;4.53;;;;;;;;;;5114302;28;20203;-69
2022/11/25 07:22:39;;;;;;;17.02;5.70;;;;;;;;;;5113985;28;20189;-70
2022/11/25 07:25:08;;;;;;;10.13;4.90;;;;;;;;;;5114017;28;20288;-69
2022/11/25 07:27:35;;;;;;;7.17;3.70;;;;;;;;;;5113884;28;20489;-68
2022/11/25 07:30:03;;;;;;;17.08;4.75;;;;;;;;;;5113832;28;20484;-68
2022/11/25 07:32:33;;;;;;;13.23;5.35;;;;;;;;;;5113772;28;20203;-69
2022/11/25 07:35:02;;;;;;;11.52;4.93;;;;;;;;;;5113987;28;20207;-69
2022/11/25 07:37:29;;;;;;;14.45;5.38;;;;;;;;;;5113846;28;20193;-69
2022/11/25 07:39:58;;;;;;;10.15;4.18;;;;;;;;;;5114343;28;20278;-68
2022/11/25 07:42:25;;;;;;;8.27;3.90;;;;;;;;;;5113538;28;20285;-68
2022/11/25 07:44:53;;;;;;;13.15;4.10;;;;;;;;;;5113752;28;20457;-68
2022/11/25 07:47:20;;;;;;;10.80;4.63;;;;;;;;;;5113485;28;20195;-68
2022/11/25 07:49:47;;;;;;;19.93;5.07;;;;;;;;;;5113749;28;20533;-69
2022/11/25 07:52:15;;;;;;;20.85;4.65;;;;;;;;;;5115286;28;20482;-69
2022/11/25 07:54:43;;;;;;;10.07;4.15;;;;;;;;;;5117555;28;20770;-68
2022/11/25 07:57:10;;;;;;;10.05;4.05;;;;;;;;;;5117971;28;20279;-69
2022/11/25 07:59:40;;;;;;;12.25;4.55;;;;;;;;;;5117447;28;20193;-70
2022/11/25 08:02:07;;;;;;;11.23;5.00;;;;;;;;;;5117474;28;20197;-69
2022/11/25 08:04:34;;;;;;;15.50;5.30;;;;;;;;;;5117466;28;20438;-69
2022/11/25 08:07:01;;;;;;;13.07;5.20;;;;;;;;;;5117728;28;20434;-69
2022/11/25 08:09:30;;;;;;;14.73;5.45;;;;;;;;;;5117308;28;20442;-69
2022/11/25 08:11:57;;;;;;;18.13;5.32;;;;;;;;;;5117198;28;20224;-68
2022/11/25 08:14:25;;;;;;;7.73;4.80;;;;;;;;;;5117462;28;20682;-69
2022/11/25 08:16:52;;;;;;;14.80;5.07;;;;;;;;;;5117490;28;20485;-69
2022/11/25 08:19:19;;;;;;;20.02;4.78;;;;;;;;;;5117420;28;20440;-69
2022/11/25 08:21:47;;;;;;;14.40;4.70;;;;;;;;;;5117945;28;20197;-68
2022/11/25 08:24:16;;;;;;;12.10;6.17;;;;;;;;;;5117411;28;20553;-69
2022/11/25 08:26:44;;;;;;;9.00;5.10;;;;;;;;;;5117392;28;20438;-69
2022/11/25 08:29:14;;;;;;;13.27;4.63;;;;;;;;;;5117182;28;20529;-69
2022/11/25 08:31:42;;;;;;;16.07;5.00;;;;;;;;;;5117514;28;20493;-69
2022/11/25 08:34:10;;;;;;;14.97;4.57;;;;;;;;;;5117111;28;20450;-69
2022/11/25 08:36:38;;;;;;;11.43;4.20;;;;;;;;;;5117662;28;20434;-70
2022/11/25 08:39:06;;;;;;;14.87;5.30;;;;;;;;;;5117372;28;20227;-69
2022/11/25 08:41:35;;;;;;;14.10;4.77;;;;;;;;;;5116888;28;20533;-68
2022/11/25 08:44:05;;;;;;;25.63;5.83;;;;;;;;;;5117257;28;20526;-68
2022/11/25 08:46:35;;;;;;;9.50;5.07;;;;;;;;;;5116910;28;20967;-69
2022/11/25 08:49:02;;;;;;;10.23;4.60;;;;;;;;;;5116611;28;20427;-69
2022/11/25 08:51:31;;;;;;;11.20;4.50;;;;;;;;;;5116854;28;20479;-69
2022/11/25 08:53:59;;;;;;;20.05;5.60;;;;;;;;;;5116711;28;20526;-69
2022/11/25 08:56:27;;;;;;;15.47;5.13;;;;;;;;;;5117146;28;20613;-70
2022/11/25 08:58:54;;;;;;;12.05;4.60;;;;;;;;;;5116565;28;20948;-68
2022/11/25 09:01:23;;;;;;;12.83;4.57;;;;;;;;;;5116947;28;20197;-68
2022/11/25 09:03:53;;;;;;;20.53;5.83;;;;;;;;;;5115584;28;20430;-68
2022/11/25 09:06:20;;;;;;;13.37;4.70;;;;;;;;;;5116240;28;20439;-69
2022/11/25 09:08:48;;;;;;;11.13;6.23;;;;;;;;;;5117015;28;20460;-69
2022/11/25 09:11:15;;;;;;;14.40;5.20;;;;;;;;;;5116557;28;20947;-68
2022/11/25 09:13:43;;;;;;;6.63;4.10;;;;;;;;;;5116074;28;20434;-69
2022/11/25 09:16:10;;;;;;;8.70;4.50;;;;;;;;;;5116402;28;20438;-69
2022/11/25 09:18:38;;;;;;;18.43;5.30;;;;;;;;;;5116022;28;20529;-69
2022/11/25 09:21:10;;;;;;;19.47;4.70;;;;;;;;;;5115862;28;20447;-69
2022/11/25 09:23:37;;;;;;;16.40;5.47;;;;;;;;;;5116445;28;20470;-69
2022/11/25 09:26:05;;;;;;;9.90;4.90;;;;;;;;;;5116072;28;20435;-69
2022/11/25 09:28:32;;;;;;;17.30;5.13;;;;;;;;;;5116273;28;20787;-69
2022/11/25 09:31:00;;;;;;;9.93;4.88;;;;;;;;;;5115619;28;20303;-70
2022/11/25 09:33:27;;;;;;;13.13;4.90;;;;;;;;;;5116247;28;20193;-69
2022/11/25 09:35:55;;;;;;;12.02;4.95;;;;;;;;;;5115859;28;20439;-69
2022/11/25 09:38:23;;;;;;;24.43;6.27;;;;;;;;;;5115628;28;20654;-69
2022/11/25 09:40:52;;;;;;;11.33;5.53;;;;;;;;;;5115705;28;20541;-70
2022/11/25 09:49:09;;;;;;;18.40;5.57;;;;;;;;;;5115600;28;20795;-69
2022/11/25 09:51:42;;;;;;;13.73;5.50;;;;;;;;;;5115644;28;20455;-68
2022/11/25 09:54:13;;;;;;;19.93;6.20;;;;;;;;;;5115382;28;20427;-69
2022/11/25 09:56:42;;;;;;;18.13;6.90;;;;;;;;;;5115583;28;20431;-69
2022/11/25 09:59:14;;;;;;;15.03;5.73;;;;;;;;;;5115606;28;20446;-68
2022/11/25 10:01:47;;;;;;;10.23;6.47;;;;;;;;;;5115204;28;20431;-69
2022/11/25 10:04:18;;;;;;;13.70;5.90;;;;;;;;;;5115637;28;20428;-68
2022/11/25 10:06:49;;;;;;;13.80;6.00;;;;;;;;;;5114993;28;20453;-68
2022/11/25 10:09:18;;;;;;;18.27;6.70;;;;;;;;;;5115107;28;20513;-69
2022/11/25 10:11:50;;;;;;;20.97;7.27;;;;;;;;;;5114912;28;20980;-69
2022/11/25 10:14:22;;;;;;;13.40;8.50;;;;;;;;;;5114576;28;20426;-69
2022/11/25 10:16:51;;;;;;;11.97;6.27;;;;;;;;;;5115128;28;20521;-68
2022/11/25 10:19:24;;;;;;;16.57;6.33;;;;;;;;;;5114796;28;21012;-68
2022/11/25 10:21:52;;;;;;;13.37;8.20;;;;;;;;;;5115053;28;20435;-69
2022/11/25 10:24:20;;;;;;;13.80;6.60;;;;;;;;;;5115198;28;20436;-68
2022/11/25 10:26:51;;;;;;;22.00;7.10;;;;;;;;;;5114645;28;20538;-68
2022/11/25 10:29:26;;;;;;;14.33;7.57;;;;;;;;;;5114594;28;20439;-68
2022/11/25 10:31:56;;;;;;;13.27;6.73;;;;;;;;;;5114775;28;20527;-68
2022/11/25 10:34:27;;;;;;;9.23;6.37;;;;;;;;;;5114927;28;20435;-68
2022/11/25 10:36:57;;;;;;;18.07;6.87;;;;;;;;;;5114810;28;20454;-69
2022/11/25 10:39:26;;;;;;;15.03;6.70;;;;;;;;;;5114818;28;20431;-68
2022/11/25 10:41:58;;;;;;;16.33;6.57;;;;;;;;;;5114660;28;20486;-68
2022/11/25 10:44:26;;;;;;;10.70;6.67;;;;;;;;;;5114453;28;20472;-68
2022/11/25 10:47:02;;;;;;;10.30;6.80;;;;;;;;;;5114201;28;20439;-68
2022/11/25 10:49:31;;;;;;;11.63;6.60;;;;;;;;;;5115176;28;20779;-68
2022/11/25 10:51:59;;;;;;;9.87;6.37;;;;;;;;;;5114036;28;20474;-68
2022/11/25 10:54:27;;;;;;;15.90;7.87;;;;;;;;;;5114476;28;20523;-68
2022/11/25 10:56:56;;;;;;;11.20;6.97;;;;;;;;;;5114351;28;20446;-68
2022/11/25 10:59:25;;;;;;;12.63;6.40;;;;;;;;;;5114175;28;20497;-69
2022/11/25 11:01:53;;;;;;;12.57;6.87;;;;;;;;;;5114470;28;20444;-68
2022/11/25 11:04:20;;;;;;;14.33;7.70;;;;;;;;;;5114351;28;20442;-68
2022/11/25 11:06:49;;;;;;;11.10;7.60;;;;;;;;;;5114488;28;20435;-68
2022/11/25 11:09:31;;;;;;;10.00;7.40;;;;;;;;;;5114218;28;20790;-68
2022/11/25 11:12:07;;;;;;;12.60;6.97;;;;;;;;;;5113846;28;20477;-68
2022/11/25 11:14:34;;;;;;;9.97;6.13;;;;;;;;;;5114225;28;20428;-69
2022/11/25 11:17:02;;;;;;;13.50;6.67;;;;;;;;;;5114273;28;20789;-68
2022/11/25 11:19:29;;;;;;;6.40;5.70;;;;;;;;;;5114141;28;20509;-68
2022/11/25 11:22:14;;;;;;;8.80;4.77;;;;;;;;;;5113932;28;20900;-68
2022/11/25 11:24:41;;;;;;;8.67;4.70;;;;;;;;;;5114442;28;20511;-69
2022/11/25 11:27:17;;;;;;;8.90;5.60;;;;;;;;;;5113832;28;20437;-68
2022/11/25 11:29:44;;;;;;;8.50;5.03;;;;;;;;;;5114050;28;20521;-68
2022/11/25 11:32:21;;;;;;;11.97;5.70;;;;;;;;;;5113719;28;20476;-68
2022/11/25 11:34:55;;;;;;;5.33;4.00;;;;;;;;;;5113615;28;20519;-68
2022/11/25 11:37:29;;;;;;;9.50;4.10;;;;;;;;;;5113993;28;20436;-68
2022/11/25 11:40:03;;;;;;;11.07;4.30;;;;;;;;;;5113571;28;20438;-68
2022/11/25 11:42:36;;;;;;;10.70;4.33;;;;;;;;;;5113810;28;20918;-68
2022/11/25 11:45:13;;;;;;;10.23;4.30;;;;;;;;;;5113824;28;20522;-69
2022/11/25 11:47:58;;;;;;;9.50;5.53;;;;;;;;;;5113892;28;20454;-69
2022/11/25 11:50:27;;;;;;;11.23;4.90;;;;;;;;;;5114198;28;20754;-68
2022/11/25 11:52:57;;;;;;;9.53;4.37;;;;;;;;;;5113287;28;20570;-68
2022/11/25 11:55:34;;;;;;;10.23;4.53;;;;;;;;;;5113743;28;20428;-68
2022/11/25 11:58:05;;;;;;;8.30;4.40;;;;;;;;;;5113746;28;20791;-69
2022/11/25 12:00:37;;;;;;;11.37;4.93;;;;;;;;;;5113449;28;20441;-69
2022/11/25 12:03:11;;;;;;;8.27;3.23;;;;;;;;;;5113644;28;20515;-68
2022/11/25 12:05:38;;;;;;;5.80;3.00;;;;;;;;;;5113716;28;20932;-69
2022/11/25 12:08:10;;;;;;;6.20;3.60;;;;;;;;;;5113218;28;20438;-68
2022/11/25 12:10:40;;;;;;;6.30;3.53;;;;;;;;;;5113252;28;20454;-68
2022/11/25 12:13:14;;;;;;;5.97;3.50;;;;;;;;;;5112994;28;20488;-68
2022/11/25 12:15:44;;;;;;;8.10;2.77;;;;;;;;;;5113426;28;20530;-68
2022/11/25 12:18:15;;;;;;;5.93;3.03;;;;;;;;;;5113434;28;20447;-68
2022/11/25 12:20:45;;;;;;;5.40;2.73;;;;;;;;;;5113650;28;20430;-68
2022/11/25 12:23:16;;;;;;;6.87;3.40;;;;;;;;;;5113439;28;20868;-68
2022/11/25 12:25:44;;;;;;;5.77;3.33;;;;;;;;;;5113837;28;20778;-68
2022/11/25 12:28:16;;;;;;;6.80;3.40;;;;;;;;;;5113219;28;20439;-68
2022/11/25 12:30:52;;;;;;;7.07;3.00;;;;;;;;;;5113073;28;20525;-68
2022/11/25 12:33:21;;;;;;;14.50;3.90;;;;;;;;;;5113236;28;20547;-69
2022/11/25 12:35:54;;;;;;;7.70;2.80;;;;;;;;;;5113268;28;20444;-68
2022/11/25 12:38:31;;;;;;;13.40;4.10;;;;;;;;;;5115135;28;20425;-68
2022/11/25 12:41:02;;;;;;;9.03;3.90;;;;;;;;;;5116922;28;20903;-69
2022/11/25 12:43:34;;;;;;;10.60;4.40;;;;;;;;;;5116539;28;20559;-68
2022/11/25 12:46:06;;;;;;;9.30;3.90;;;;;;;;;;5117083;28;20430;-69
2022/11/25 12:48:33;;;;;;;12.27;3.47;;;;;;;;;;5116957;28;20423;-68
2022/11/25 12:51:03;;;;;;;13.87;3.67;;;;;;;;;;5116496;28;20442;-68
2022/11/25 12:53:37;;;;;;;8.10;3.40;;;;;;;;;;5116696;28;20479;-68
2022/11/25 12:56:11;;;;;;;5.40;3.00;;;;;;;;;;5116847;28;20435;-69
2022/11/25 12:58:46;;;;;;;7.53;3.40;;;;;;;;;;5116685;28;20518;-68
2022/11/25 13:01:25;;;;;;;13.20;3.50;;;;;;;;;;5117085;28;20427;-69
2022/11/25 13:04:12;;;;;;;7.87;3.00;;;;;;;;;;5116582;28;20447;-68
2022/11/25 13:06:46;;;;;;;7.73;3.23;;;;;;;;;;5116789;28;20432;-69
2022/11/25 13:09:20;;;;;;;8.83;3.90;;;;;;;;;;5116449;28;20514;-68
2022/11/25 13:11:56;;;;;;;7.83;3.20;;;;;;;;;;5116728;28;20577;-68
2022/11/25 13:14:28;;;;;;;9.57;4.00;;;;;;;;;;5116774;28;20507;-68
2022/11/25 13:16:55;;;;;;;10.53;4.07;;;;;;;;;;5116492;28;20484;-68
2022/11/25 13:19:23;;;;;;;11.43;3.33;;;;;;;;;;5115933;28;20973;-68
2022/11/25 13:21:57;;;;;;;5.70;3.60;;;;;;;;;;5116250;28;20443;-68
2022/11/25 13:24:29;;;;;;;11.70;5.50;;;;;;;;;;5115757;28;20446;-68
2022/11/25 13:26:56;;;;;;;9.50;5.27;;;;;;;;;;5116088;28;20443;-68
2022/11/25 13:29:41;;;;;;;19.30;3.90;;;;;;;;;;5116024;28;20447;-68
2022/11/25 13:32:24;;;;;;;9.73;4.30;;;;;;;;;;5115396;28;20483;-68
2022/11/25 13:35:12;;;;;;;11.63;5.40;;;;;;;;;;5116521;28;20433;-68
2022/11/25 13:37:40;;;;;;;12.07;3.93;;;;;;;;;;5115859;28;20453;-69
2022/11/25 13:40:20;;;;;;;11.20;4.73;;;;;;;;;;5115383;28;20443;-68
2022/11/25 13:42:47;;;;;;;8.80;4.00;;;;;;;;;;5115178;27;20462;-67
2022/11/25 13:45:26;;;;;;;5.20;3.90;;;;;;;;;;5115780;28;20458;-68
2022/11/25 13:47:54;;;;;;;5.17;3.27;;;;;;;;;;5115721;28;20417;-69
2022/11/25 13:50:24;;;;;;;6.90;3.20;;;;;;;;;;5114433;28;20910;-69
2022/11/25 13:52:58;;;;;;;6.63;3.40;;;;;;;;;;5115180;27;20977;-69
2022/11/25 13:55:32;;;;;;;8.40;3.93;;;;;;;;;;5115075;28;20434;-68
2022/11/25 13:58:07;;;;;;;12.43;3.80;;;;;;;;;;5115857;28;20430;-68
2022/11/25 14:00:55;;;;;;;9.43;3.93;;;;;;;;;;5115487;28;20512;-69
2022/11/25 14:03:41;;;;;;;5.17;2.93;;;;;;;;;;5110397;28;20479;-69
2022/11/25 14:06:13;;;;;;;9.57;3.63;;;;;;;;;;5115205;28;20443;-68
2022/11/25 14:08:43;;;;;;;11.73;3.73;;;;;;;;;;5115258;28;20858;-70
2022/11/25 14:11:29;;;;;;;4.73;2.50;;;;;;;;;;5115247;28;20804;-67
2022/11/25 14:14:02;;;;;;;11.00;3.87;;;;;;;;;;5115279;28;20553;-68
2022/11/25 14:16:40;;;;;;;6.10;3.70;;;;;;;;;;5115308;28;20438;-68
2022/11/25 14:19:25;;;;;;;7.90;2.90;;;;;;;;;;5094544;28;20444;-68
2022/11/25 14:22:01;;;;;;;6.50;3.23;;;;;;;;;;5094612;28;20446;-68
2022/11/25 14:24:30;;;;;;;20.00;3.80;;;;;;;;;;5094980;28;20438;-67
2022/11/25 14:26:58;;;;;;;8.37;4.73;;;;;;;;;;5113713;28;20546;-67
2022/11/25 14:29:28;;;;;;;8.80;3.10;;;;;;;;;;5113757;28;20448;-68
2022/11/25 14:31:58;;;;;;;4.40;2.60;;;;;;;;;;5113522;28;20600;-69
2022/11/25 14:34:29;;;;;;;14.73;3.63;;;;;;;;;;5113475;28;20447;-67
2022/11/25 14:36:59;;;;;;;14.13;4.47;;;;;;;;;;5114031;28;20670;-69
2022/11/25 14:39:31;;;;;;;10.70;4.03;;;;;;;;;;5114450;28;20444;-68
2022/11/25 14:42:01;;;;;;;8.97;3.73;;;;;;;;;;5113348;28;20467;-68
2022/11/25 14:44:30;;;;;;;9.27;3.47;;;;;;;;;;5114201;28;20442;-68
2022/11/25 14:46:58;;;;;;;18.43;5.40;;;;;;;;;;5114458;28;20552;-68
2022/11/25 14:49:25;;;;;;;8.30;5.93;;;;;;;;;;5114403;28;20799;-68
2022/11/25 14:51:53;;;;;;;12.77;3.57;;;;;;;;;;5113952;28;20528;-69
2022/11/25 14:54:21;;;;;;;10.03;3.20;;;;;;;;;;5113928;28;20439;-68